Time;durP1;ratioP1;P1;durP2;ratioP2;P2;SDS_P1;SDS_P2;PMS_P1;PMS_P2;Temp;Humidity;BMP_temperature;BMP_pressure;BME280_temperature;BME280_humidity;BME280_pressure;Samples;Min_cycle;Max_cycle;Signal;HPM_P1;HPM_P2
2022/08/20 00:02:03;;;;;;;17.90;14.52;;;21.20;99.90;;;;;;5136167;27;20065;-76
2022/08/20 00:04:29;;;;;;;16.83;13.55;;;21.20;99.90;;;;;;5137584;27;20064;-80
2022/08/20 00:06:55;;;;;;;25.98;18.27;;;21.30;99.90;;;;;;5137280;27;20512;-80
2022/08/20 00:09:20;;;;;;;23.27;16.70;;;21.30;99.90;;;;;;5136073;27;20030;-79
2022/08/20 00:11:46;;;;;;;20.98;16.33;;;21.20;99.90;;;;;;5136014;27;20042;-79
2022/08/20 00:14:12;;;;;;;17.55;14.32;;;21.10;99.90;;;;;;5123038;27;20056;-79
2022/08/20 00:16:37;;;;;;;21.65;12.50;;;21.10;99.90;;;;;;5115623;28;20092;-79
2022/08/20 00:19:06;;;;;;;15.00;12.80;;;21.10;99.90;;;;;;5115360;28;20520;-79
2022/08/20 00:21:32;;;;;;;17.02;12.93;;;21.20;99.90;;;;;;5116634;28;20107;-76
2022/08/20 00:23:58;;;;;;;16.23;11.95;;;21.30;99.90;;;;;;5115133;28;20557;-79
2022/08/20 00:26:24;;;;;;;18.98;14.05;;;21.30;99.90;;;;;;5115209;28;20111;-79
2022/08/20 00:28:51;;;;;;;19.95;14.30;;;21.20;99.90;;;;;;5119552;27;20076;-76
2022/08/20 00:31:19;;;;;;;18.45;13.07;;;21.20;99.90;;;;;;5136894;27;20060;-76
2022/08/20 00:33:46;;;;;;;17.27;13.57;;;21.20;99.90;;;;;;5135133;27;20030;-76
2022/08/20 00:36:14;;;;;;;18.25;13.10;;;21.20;99.90;;;;;;5135230;27;20102;-79
2022/08/20 00:38:43;;;;;;;21.73;12.75;;;21.20;99.90;;;;;;5135437;27;20023;-76
2022/08/20 00:41:13;;;;;;;17.92;12.52;;;21.20;99.90;;;;;;5135457;27;20023;-76
2022/08/20 00:43:46;;;;;;;14.23;11.02;;;21.10;99.90;;;;;;5136841;27;20043;-76
2022/08/20 00:46:20;;;;;;;16.98;11.02;;;21.10;99.90;;;;;;5136757;27;20131;-79
2022/08/20 00:48:50;;;;;;;16.67;12.15;;;21.10;99.90;;;;;;5135153;27;20031;-79
2022/08/20 00:51:37;;;;;;;17.58;12.65;;;21.10;99.90;;;;;;5136608;27;20369;-79
2022/08/20 00:54:13;;;;;;;15.18;11.32;;;21.20;99.90;;;;;;5136550;27;20095;-79
2022/08/20 00:56:41;;;;;;;15.98;12.90;;;21.10;99.90;;;;;;5136516;27;20044;-76
2022/08/20 00:59:11;;;;;;;22.35;13.43;;;21.10;99.90;;;;;;5135034;27;20090;-76
2022/08/20 01:01:42;;;;;;;16.08;13.35;;;21.10;99.90;;;;;;5135462;27;20031;-75
2022/08/20 01:04:09;;;;;;;17.67;13.40;;;21.00;99.90;;;;;;5134962;27;20507;-76
2022/08/20 01:06:36;;;;;;;19.27;13.48;;;21.00;99.90;;;;;;5136223;27;20020;-76
2022/08/20 01:09:03;;;;;;;18.42;12.23;;;21.00;99.90;;;;;;5136180;27;20034;-75
2022/08/20 01:11:32;;;;;;;15.10;11.73;;;21.00;99.90;;;;;;5134854;27;20118;-75
2022/08/20 01:16:48;;;;;;;19.98;12.20;;;21.00;99.90;;;;;;5116061;28;20535;-79
2022/08/20 01:19:17;;;;;;;16.35;12.38;;;20.90;99.90;;;;;;5114121;28;20422;-79
2022/08/20 01:21:43;;;;;;;14.70;12.52;;;20.80;99.90;;;;;;5114200;28;20020;-79
2022/08/20 01:24:21;;;;;;;19.45;13.40;;;20.70;99.90;;;;;;5115275;28;20023;-79
2022/08/20 01:26:48;;;;;;;18.80;13.05;;;20.80;99.90;;;;;;5114032;28;20024;-76
2022/08/20 01:29:18;;;;;;;17.80;13.25;;;20.70;99.90;;;;;;5120690;27;20380;-76
2022/08/20 01:31:44;;;;;;;23.48;14.35;;;20.80;99.90;;;;;;5134528;27;20031;-76
2022/08/20 01:34:15;;;;;;;15.93;11.65;;;20.70;99.90;;;;;;5134316;27;20015;-79
2022/08/20 01:36:51;;;;;;;15.75;12.13;;;20.70;99.90;;;;;;5134490;27;20043;-79
2022/08/20 01:39:22;;;;;;;22.35;13.35;;;20.60;99.90;;;;;;5135826;27;20027;-79
2022/08/20 01:42:24;;;;;;;16.52;12.38;;;20.60;99.90;;;;;;5135619;27;20419;-76
2022/08/20 01:44:51;;;;;;;16.77;12.48;;;20.60;99.90;;;;;;5134128;27;20114;-76
2022/08/20 01:47:30;;;;;;;16.45;12.45;;;20.50;99.90;;;;;;5134073;27;20030;-75
2022/08/20 01:50:04;;;;;;;19.15;13.00;;;20.40;99.90;;;;;;5135358;27;20100;-77
2022/08/20 01:52:40;;;;;;;15.82;12.63;;;20.40;99.90;;;;;;5135419;27;20011;-76
2022/08/20 01:55:06;;;;;;;15.38;12.45;;;20.30;99.90;;;;;;5134032;27;20030;-79
2022/08/20 01:57:34;;;;;;;13.27;11.85;;;20.30;99.90;;;;;;5134098;27;20142;-79
2022/08/20 02:00:00;;;;;;;20.20;13.30;;;20.30;99.90;;;;;;5114500;27;20069;-75
2022/08/20 02:02:26;;;;;;;19.48;13.07;;;20.20;99.90;;;;;;5113326;28;20053;-78
2022/08/20 02:04:52;;;;;;;18.23;13.35;;;20.10;99.90;;;;;;5114541;28;20051;-76
2022/08/20 02:07:20;;;;;;;18.88;14.07;;;20.00;99.90;;;;;;5114595;28;20019;-75
2022/08/20 02:09:48;;;;;;;21.92;14.60;;;20.00;99.90;;;;;;5113107;28;20019;-78
2022/08/20 02:12:14;;;;;;;17.73;14.35;;;20.00;99.90;;;;;;5114446;28;20032;-76
2022/08/20 02:14:45;;;;;;;17.45;13.57;;;20.00;99.90;;;;;;5114526;28;20055;-79
2022/08/20 02:17:13;;;;;;;18.98;13.55;;;20.00;99.90;;;;;;5114457;28;20024;-76
2022/08/20 02:19:49;;;;;;;18.70;14.18;;;20.00;99.90;;;;;;5112984;28;20019;-79
2022/08/20 02:22:36;;;;;;;17.42;12.55;;;20.10;99.90;;;;;;5113030;28;20027;-76
2022/08/20 02:25:05;;;;;;;24.33;15.20;;;20.10;99.90;;;;;;5112936;28;20019;-76
2022/08/20 02:27:31;;;;;;;20.48;13.40;;;20.00;99.90;;;;;;5114232;28;20045;-78
2022/08/20 02:29:56;;;;;;;20.13;13.82;;;20.00;99.90;;;;;;5113996;28;20024;-78
2022/08/20 02:32:22;;;;;;;19.90;15.23;;;19.90;99.90;;;;;;5114008;28;20027;-76
2022/08/20 02:34:48;;;;;;;20.02;12.48;;;19.90;99.90;;;;;;5112724;28;20031;-77
2022/08/20 02:37:17;;;;;;;18.02;13.50;;;19.90;99.90;;;;;;5112702;28;20031;-79
2022/08/20 02:39:43;;;;;;;17.10;12.45;;;19.90;99.90;;;;;;5113997;28;20020;-76
2022/08/20 02:42:11;;;;;;;15.48;13.20;;;19.80;99.90;;;;;;5113934;28;20020;-76
2022/08/20 02:44:37;;;;;;;18.42;13.13;;;19.80;99.90;;;;;;5113837;27;20404;-76
2022/08/20 02:47:04;;;;;;;23.85;13.65;;;19.70;99.90;;;;;;5112784;28;20028;-75
2022/08/20 02:49:30;;;;;;;21.38;13.38;;;19.60;99.90;;;;;;5113774;28;20112;-79
2022/08/20 02:51:56;;;;;;;18.20;14.00;;;19.60;99.90;;;;;;5113842;28;20070;-75
2022/08/20 02:54:21;;;;;;;17.40;13.30;;;19.60;99.90;;;;;;5113714;28;20469;-78
2022/08/20 02:56:47;;;;;;;18.15;13.50;;;19.50;99.90;;;;;;5113714;28;20024;-76
2022/08/20 02:59:13;;;;;;;18.73;14.07;;;19.40;99.90;;;;;;5112162;28;20392;-76
2022/08/20 03:01:38;;;;;;;20.65;13.95;;;19.40;99.90;;;;;;5112076;28;20027;-76
2022/08/20 03:04:04;;;;;;;20.30;13.88;;;19.40;99.90;;;;;;5112287;28;20030;-76
2022/08/20 03:06:30;;;;;;;17.95;13.82;;;19.30;99.90;;;;;;5111333;28;20110;-75
2022/08/20 03:08:56;;;;;;;21.75;14.80;;;19.30;99.90;;;;;;5113506;28;20107;-77
2022/08/20 03:11:21;;;;;;;16.25;14.07;;;19.20;99.90;;;;;;5111915;28;20139;-75
2022/08/20 03:13:47;;;;;;;18.90;14.95;;;19.20;99.90;;;;;;5112419;28;20084;-75
2022/08/20 03:16:13;;;;;;;19.13;12.63;;;19.20;99.90;;;;;;5113583;28;20599;-76
2022/08/20 03:18:42;;;;;;;18.02;12.90;;;19.20;99.90;;;;;;5113707;28;20047;-78
2022/08/20 03:21:10;;;;;;;14.38;12.52;;;19.10;99.90;;;;;;5113492;28;20062;-77
2022/08/20 03:23:37;;;;;;;17.00;11.82;;;19.20;99.90;;;;;;5112241;28;20393;-75
2022/08/20 03:26:05;;;;;;;16.45;13.45;;;19.20;99.90;;;;;;5112171;28;20037;-75
2022/08/20 03:28:31;;;;;;;24.25;13.82;;;19.30;99.90;;;;;;5113550;28;20062;-78
2022/08/20 03:30:58;;;;;;;18.38;13.20;;;19.30;99.90;;;;;;5113306;28;20059;-78
2022/08/20 03:33:24;;;;;;;16.27;13.07;;;19.30;99.90;;;;;;5113338;28;20020;-79
2022/08/20 03:35:50;;;;;;;20.15;13.20;;;19.30;99.90;;;;;;5113112;28;20016;-75
2022/08/20 03:38:17;;;;;;;20.70;13.85;;;19.40;99.90;;;;;;5113414;28;20524;-75
2022/08/20 03:40:43;;;;;;;27.83;14.02;;;19.20;99.90;;;;;;5111561;28;20385;-79
2022/08/20 03:43:09;;;;;;;15.65;12.43;;;19.20;99.90;;;;;;5113212;28;20035;-79
2022/08/20 03:45:37;;;;;;;20.42;11.90;;;19.20;99.90;;;;;;5113343;28;20036;-75
2022/08/20 03:48:05;;;;;;;17.27;12.60;;;19.20;99.90;;;;;;5111982;28;20031;-78
2022/08/20 03:50:31;;;;;;;20.02;12.57;;;19.20;99.90;;;;;;5112990;28;20067;-75
2022/08/20 03:52:58;;;;;;;18.42;11.85;;;19.10;99.90;;;;;;5111788;28;20469;-75
2022/08/20 03:55:25;;;;;;;15.70;11.68;;;19.00;99.90;;;;;;5111719;28;20393;-75
2022/08/20 03:57:54;;;;;;;12.77;10.68;;;19.00;99.90;;;;;;5111704;28;20024;-75
2022/08/20 04:00:27;;;;;;;19.40;11.52;;;19.00;99.90;;;;;;5106732;28;20024;-76
2022/08/20 04:02:52;;;;;;;;;;;19.00;99.90;;;;;;5101746;27;20046;-75
2022/08/20 04:05:18;;;;;;;14.35;10.88;;;19.10;99.90;;;;;;5093291;28;20281;-79
2022/08/20 04:07:44;;;;;;;14.20;12.25;;;19.10;99.90;;;;;;5091474;28;20113;-75
2022/08/20 04:10:11;;;;;;;13.60;10.55;;;19.10;99.90;;;;;;5092979;28;20123;-78
2022/08/20 04:12:40;;;;;;;15.77;10.38;;;19.10;99.90;;;;;;5106740;28;20034;-76
2022/08/20 04:15:14;;;;;;;19.73;10.93;;;19.10;99.90;;;;;;5115258;28;20015;-77
2022/08/20 04:17:43;;;;;;;12.68;9.52;;;19.20;99.90;;;;;;5116668;28;20058;-75
2022/08/20 04:20:11;;;;;;;12.75;9.73;;;19.20;99.90;;;;;;5115220;28;20015;-75
2022/08/20 04:22:37;;;;;;;17.73;9.68;;;19.20;99.90;;;;;;5115233;28;20169;-77
2022/08/20 04:25:05;;;;;;;14.10;9.90;;;19.30;99.90;;;;;;5116589;28;20066;-78
2022/08/20 04:27:34;;;;;;;12.65;10.88;;;19.30;99.90;;;;;;5115228;28;20020;-75
2022/08/20 04:30:01;;;;;;;14.57;10.57;;;19.30;99.90;;;;;;5126878;27;20026;-76
2022/08/20 04:32:27;;;;;;;13.32;9.88;;;19.30;99.90;;;;;;5135894;27;20035;-75
2022/08/20 04:34:53;;;;;;;14.50;10.65;;;19.30;99.90;;;;;;5135680;27;20521;-76
2022/08/20 04:37:21;;;;;;;13.15;9.85;;;19.30;99.90;;;;;;5128650;27;20016;-78
2022/08/20 04:40:52;;;;;;;16.35;10.27;;;19.40;99.90;;;;;;5124825;27;20026;-79
2022/08/20 04:42:37;;;;;;;13.23;9.98;;;19.40;99.90;;;;;;5115482;28;20028;-79
2022/08/20 04:45:07;;;;;;;15.75;10.02;;;19.50;99.90;;;;;;5115581;28;20023;-75
2022/08/20 04:47:34;;;;;;;14.65;9.77;;;19.50;99.90;;;;;;5114086;28;20028;-75
2022/08/20 04:50:00;;;;;;;18.52;9.77;;;19.50;99.90;;;;;;5114031;28;20044;-75
2022/08/20 04:52:31;;;;;;;12.40;9.45;;;19.50;99.90;;;;;;5114132;28;20443;-75
2022/08/20 04:54:57;;;;;;;13.52;10.10;;;19.50;99.90;;;;;;5115309;28;20114;-76
2022/08/20 04:57:25;;;;;;;14.23;10.43;;;19.50;99.90;;;;;;5115186;28;20070;-75
2022/08/20 04:59:52;;;;;;;12.98;9.88;;;19.60;99.90;;;;;;5114023;28;20140;-76
2022/08/20 05:02:19;;;;;;;15.50;9.10;;;19.70;99.90;;;;;;5115208;28;20667;-76
2022/08/20 05:04:45;;;;;;;11.80;8.95;;;19.70;99.90;;;;;;5113947;28;20022;-78
2022/08/20 05:07:12;;;;;;;13.20;9.48;;;19.80;99.90;;;;;;5114944;28;20487;-76
2022/08/20 05:09:38;;;;;;;12.80;10.38;;;19.80;99.90;;;;;;5115179;28;20084;-76
2022/08/20 05:12:03;;;;;;;11.95;8.50;;;19.90;99.90;;;;;;5113571;28;20032;-75
2022/08/20 05:14:30;;;;;;;14.85;9.15;;;20.10;99.90;;;;;;5115083;28;20020;-76
2022/08/20 05:16:56;;;;;;;10.05;8.10;;;20.10;99.90;;;;;;5114751;28;20448;-75
2022/08/20 05:19:22;;;;;;;12.35;8.73;;;20.30;99.90;;;;;;5113567;28;20031;-75
2022/08/20 05:21:52;;;;;;;17.38;8.23;;;20.40;99.90;;;;;;5113206;28;20031;-76
2022/08/20 05:24:20;;;;;;;11.68;9.32;;;20.50;99.90;;;;;;5114540;28;20494;-76
2022/08/20 05:26:46;;;;;;;10.50;8.18;;;20.60;99.90;;;;;;5093129;28;20031;-76
2022/08/20 05:29:11;;;;;;;18.55;10.45;;;20.70;99.90;;;;;;5108588;27;20007;-75
2022/08/20 05:31:38;;;;;;;14.70;10.25;;;20.80;99.90;;;;;;5133811;27;20031;-76
2022/08/20 05:34:08;;;;;;;16.45;9.85;;;20.90;99.90;;;;;;5133995;27;20028;-76
2022/08/20 05:36:34;;;;;;;15.05;9.10;;;21.00;99.90;;;;;;5135060;27;20051;-78
2022/08/20 05:39:00;;;;;;;14.57;9.48;;;21.10;99.90;;;;;;5133655;27;20504;-79
2022/08/20 05:41:28;;;;;;;10.85;8.85;;;21.10;99.90;;;;;;5133714;27;20014;-75
2022/08/20 05:43:54;;;;;;;11.45;9.05;;;21.20;99.90;;;;;;5120471;27;20488;-76
2022/08/20 05:46:21;;;;;;;15.85;9.23;;;21.30;99.90;;;;;;5092543;28;20023;-76
2022/08/20 05:48:46;;;;;;;13.52;10.95;;;21.40;99.90;;;;;;5092267;28;20044;-75
2022/08/20 05:51:12;;;;;;;20.60;11.07;;;21.50;99.90;;;;;;5092520;28;20030;-75
2022/08/20 05:53:38;;;;;;;11.48;8.57;;;21.70;99.90;;;;;;5093907;28;20366;-78
2022/08/20 05:56:03;;;;;;;9.40;7.80;;;21.90;99.90;;;;;;5093822;28;20027;-79
2022/08/20 05:58:31;;;;;;;11.23;9.00;;;22.10;99.90;;;;;;5093384;28;20024;-78
2022/08/20 06:00:57;;;;;;;10.25;8.07;;;22.30;99.90;;;;;;5093773;28;20024;-77
2022/08/20 06:06:09;;;;;;;13.48;8.32;;;22.50;99.90;;;;;;5102805;28;20039;-76
2022/08/20 06:08:35;;;;;;;15.48;9.65;;;22.60;99.90;;;;;;5102955;28;20027;-78
2022/08/20 06:11:01;;;;;;;13.93;9.13;;;22.70;99.90;;;;;;5103194;28;20083;-79
2022/08/20 06:13:27;;;;;;;12.57;9.52;;;22.80;99.90;;;;;;5102125;28;20107;-76
2022/08/20 06:15:57;;;;;;;18.33;10.43;;;22.90;99.90;;;;;;5093084;28;20024;-76
2022/08/20 06:18:23;;;;;;;14.45;8.13;;;23.00;99.90;;;;;;5097568;28;20031;-76
2022/08/20 06:20:49;;;;;;;11.55;8.60;;;23.10;99.90;;;;;;5112165;28;20027;-80
2022/08/20 06:23:16;;;;;;;13.02;8.95;;;23.20;99.90;;;;;;5110351;28;20027;-79
2022/08/20 06:25:41;;;;;;;12.05;8.25;;;23.20;99.90;;;;;;5111731;28;20027;-77
2022/08/20 06:28:07;;;;;;;12.82;8.90;;;23.30;99.90;;;;;;5113644;28;20027;-77
2022/08/20 06:30:33;;;;;;;14.45;8.82;;;23.40;99.90;;;;;;5133936;27;20038;-77
2022/08/20 06:32:59;;;;;;;15.48;9.93;;;23.40;99.90;;;;;;5128195;27;20476;-77
2022/08/20 06:35:25;;;;;;;14.88;10.10;;;23.60;99.90;;;;;;5112534;28;20422;-78
2022/08/20 06:37:52;;;;;;;16.75;10.63;;;23.60;99.90;;;;;;5112842;28;20020;-79
2022/08/20 06:40:21;;;;;;;14.18;9.45;;;23.60;99.90;;;;;;5112228;28;20507;-78
2022/08/20 06:42:48;;;;;;;16.85;9.00;;;23.70;99.90;;;;;;5112150;28;20027;-77
2022/08/20 06:45:16;;;;;;;11.88;7.50;;;23.70;99.90;;;;;;5104089;28;20662;-77
2022/08/20 06:47:43;;;;;;;11.45;6.80;;;23.70;99.90;;;;;;5107449;27;20084;-78
2022/08/20 06:50:12;;;;;;;8.82;7.55;;;23.80;99.90;;;;;;5111002;28;20652;-78
2022/08/20 06:52:39;;;;;;;11.07;7.03;;;23.80;99.90;;;;;;5112944;28;20047;-78
2022/08/20 06:55:08;;;;;;;11.25;6.95;;;24.00;99.90;;;;;;5113108;28;20027;-78
2022/08/20 06:57:35;;;;;;;12.77;7.53;;;24.00;99.90;;;;;;5112473;27;20027;-78
2022/08/20 07:00:03;;;;;;;13.75;7.03;;;24.00;99.90;;;;;;5112272;28;20016;-81
2022/08/20 07:02:28;;;;;;;15.95;7.57;;;24.00;99.90;;;;;;5111437;28;20489;-80
2022/08/20 07:04:54;;;;;;;12.77;6.95;;;24.00;99.90;;;;;;5102858;28;20054;-80
2022/08/20 07:07:20;;;;;;;11.13;6.57;;;24.00;99.90;;;;;;5092411;28;20032;-80
2022/08/20 07:09:46;;;;;;;13.65;8.13;;;24.00;99.90;;;;;;5101654;28;20103;-80
2022/08/20 07:12:12;;;;;;;13.70;7.13;;;24.10;99.90;;;;;;5092417;28;20043;-78
2022/08/20 07:14:38;;;;;;;8.98;6.95;;;24.10;99.90;;;;;;5094096;28;20020;-78
2022/08/20 07:17:04;;;;;;;16.20;7.32;;;24.00;99.90;;;;;;5106398;28;20100;-78
2022/08/20 07:19:30;;;;;;;17.23;7.18;;;24.00;99.90;;;;;;5101810;28;20054;-81
2022/08/20 07:21:56;;;;;;;11.60;7.15;;;24.00;99.90;;;;;;5092559;28;20024;-79
2022/08/20 07:24:22;;;;;;;9.15;6.60;;;23.90;99.90;;;;;;5096877;28;20027;-81
2022/08/20 07:26:49;;;;;;;11.32;7.40;;;23.90;99.90;;;;;;5092822;28;20503;-82
2022/08/20 07:29:15;;;;;;;8.45;6.60;;;23.80;99.90;;;;;;5116979;28;20023;-82
2022/08/20 07:34:25;;;;;;;15.00;8.07;;;23.70;99.90;;;;;;5095155;28;20032;-81
2022/08/20 07:36:50;;;;;;;13.43;7.70;;;23.90;99.90;;;;;;5092155;28;20024;-81
2022/08/20 07:39:16;;;;;;;14.18;7.72;;;24.00;99.90;;;;;;5101558;28;20020;-82
2022/08/20 07:41:42;;;;;;;13.82;8.48;;;24.10;99.90;;;;;;5100207;28;20031;-80
2022/08/20 07:44:07;;;;;;;13.43;8.57;;;24.20;99.90;;;;;;5104982;28;20023;-81
2022/08/20 07:46:33;;;;;;;16.33;8.25;;;24.30;99.90;;;;;;5099025;28;20470;-81
2022/08/20 07:48:59;;;;;;;13.70;8.65;;;24.30;99.90;;;;;;5108951;28;20075;-79
2022/08/20 07:51:25;;;;;;;13.93;7.47;;;24.30;99.90;;;;;;5114375;28;20594;-79
2022/08/20 07:53:51;;;;;;;11.00;8.02;;;24.30;99.90;;;;;;5110140;28;20035;-81
2022/08/20 07:56:22;;;;;;;10.95;7.75;;;24.30;99.90;;;;;;5095375;28;20031;-79
2022/08/20 07:58:54;;;;;;;12.10;8.05;;;24.30;99.90;;;;;;5105745;28;20055;-79
2022/08/20 08:01:24;;;;;;;11.25;7.82;;;24.30;99.90;;;;;;5115683;28;20022;-81
2022/08/20 08:03:50;;;;;;;15.93;8.50;;;24.30;99.90;;;;;;5112699;28;20016;-81
2022/08/20 08:06:19;;;;;;;13.23;8.25;;;24.30;99.90;;;;;;5113464;28;20100;-81
2022/08/20 08:08:44;;;;;;;12.80;7.60;;;24.40;99.90;;;;;;5113355;28;20023;-79
2022/08/20 08:11:10;;;;;;;14.73;8.10;;;24.40;99.90;;;;;;5115552;28;20069;-79
2022/08/20 08:13:38;;;;;;;14.52;7.88;;;24.60;99.90;;;;;;5116069;28;20016;-81
2022/08/20 08:16:06;;;;;;;15.65;8.82;;;24.70;99.90;;;;;;5116824;28;20098;-79
2022/08/20 08:18:42;;;;;;;12.55;8.38;;;25.00;99.90;;;;;;5115930;28;20031;-80
2022/08/20 08:21:11;;;;;;;13.43;7.88;;;25.10;99.90;;;;;;5115404;28;20023;-79
2022/08/20 08:23:39;;;;;;;10.77;7.88;;;25.30;99.90;;;;;;5115813;28;20385;-80
2022/08/20 08:26:05;;;;;;;12.15;8.90;;;25.40;99.90;;;;;;5116464;28;20076;-79
2022/08/20 08:28:31;;;;;;;11.60;8.52;;;25.50;99.90;;;;;;5118931;27;20020;-81
2022/08/20 08:30:57;;;;;;;12.05;9.38;;;25.70;99.90;;;;;;5136854;27;20030;-80
2022/08/20 08:33:30;;;;;;;13.05;9.52;;;25.90;99.90;;;;;;5128982;27;20030;-80
2022/08/20 08:35:58;;;;;;;16.55;9.60;;;26.00;99.90;;;;;;5116359;28;20015;-80
2022/08/20 08:38:25;;;;;;;12.77;9.05;;;26.10;99.90;;;;;;5115583;28;20114;-80
2022/08/20 08:40:53;;;;;;;11.55;9.15;;;26.20;99.90;;;;;;5116213;28;20052;-81
2022/08/20 08:43:21;;;;;;;12.98;8.35;;;26.30;99.90;;;;;;5115707;28;20023;-80
2022/08/20 08:46:00;;;;;;;11.50;8.95;;;26.20;99.90;;;;;;5116178;28;20141;-81
2022/08/20 08:48:36;;;;;;;12.65;8.90;;;26.30;99.90;;;;;;5115666;28;20008;-80
2022/08/20 08:51:10;;;;;;;14.70;8.98;;;26.40;99.90;;;;;;5116072;28;20035;-81
2022/08/20 08:53:41;;;;;;;13.35;8.48;;;26.50;99.90;;;;;;5115292;28;20028;-80
2022/08/20 08:56:08;;;;;;;11.10;8.40;;;26.80;99.90;;;;;;5115200;28;20035;-81
2022/08/20 08:58:35;;;;;;;15.10;9.50;;;26.90;99.90;;;;;;5115236;28;20024;-81
2022/08/20 09:01:08;;;;;;;17.13;8.77;;;26.80;99.90;;;;;;5115777;28;20027;-81
2022/08/20 09:03:36;;;;;;;15.05;8.90;;;26.90;99.90;;;;;;5115056;28;20028;-81
2022/08/20 09:06:03;;;;;;;13.90;10.02;;;26.90;99.90;;;;;;5115702;28;20027;-81
2022/08/20 09:08:48;;;;;;;15.75;9.55;;;26.80;99.90;;;;;;5115233;28;20097;-81
2022/08/20 09:11:14;;;;;;;15.43;10.63;;;26.80;99.90;;;;;;5115458;28;20540;-81
2022/08/20 09:13:41;;;;;;;12.65;9.57;;;26.90;99.90;;;;;;5115050;28;20017;-81
2022/08/20 09:16:07;;;;;;;12.70;9.60;;;26.80;99.90;;;;;;5115318;28;20023;-81
2022/08/20 09:18:33;;;;;;;13.55;9.43;;;26.70;99.90;;;;;;5114862;28;20034;-81
2022/08/20 09:20:59;;;;;;;14.52;9.75;;;26.60;99.90;;;;;;5115379;28;20408;-81
2022/08/20 09:23:25;;;;;;;13.43;10.15;;;26.60;99.90;;;;;;5114791;28;20103;-81
2022/08/20 09:25:50;;;;;;;14.85;9.60;;;26.50;99.90;;;;;;5115677;28;20353;-81
2022/08/20 09:28:16;;;;;;;11.60;8.93;;;26.60;99.90;;;;;;5115863;27;20140;-81
2022/08/20 09:30:42;;;;;;;14.90;9.30;;;26.60;99.90;;;;;;5135659;27;20042;-81
2022/08/20 09:33:07;;;;;;;13.95;8.93;;;26.30;99.90;;;;;;5129761;27;20031;-81
2022/08/20 09:35:33;;;;;;;14.40;9.77;;;26.40;99.90;;;;;;5115027;28;20023;-81
2022/08/20 09:37:59;;;;;;;18.50;9.27;;;26.30;99.90;;;;;;5114376;28;20068;-80
2022/08/20 09:40:25;;;;;;;13.55;9.10;;;26.10;99.90;;;;;;5115068;28;20051;-81
2022/08/20 09:42:51;;;;;;;17.42;10.10;;;26.10;99.90;;;;;;5114398;28;20047;-80
2022/08/20 09:45:17;;;;;;;18.98;10.02;;;26.10;99.90;;;;;;5114546;28;20019;-81
2022/08/20 09:47:42;;;;;;;14.18;9.77;;;26.20;99.90;;;;;;5110066;28;20084;-83
2022/08/20 09:50:08;;;;;;;17.15;10.07;;;26.10;99.90;;;;;;5093536;28;20052;-83
2022/08/20 09:52:40;;;;;;;15.82;10.40;;;26.00;99.90;;;;;;5094140;28;20085;-82
2022/08/20 09:55:23;;;;;;;15.82;9.50;;;25.90;99.90;;;;;;5093845;28;20028;-80
2022/08/20 09:57:50;;;;;;;18.10;9.57;;;25.90;99.90;;;;;;5094081;28;20058;-82
2022/08/20 10:00:17;;;;;;;16.52;9.75;;;26.20;99.90;;;;;;5092537;28;20398;-80
2022/08/20 10:02:43;;;;;;;15.40;9.55;;;26.40;99.90;;;;;;5094792;28;20111;-82
2022/08/20 10:05:09;;;;;;;18.45;8.70;;;26.50;99.90;;;;;;5101766;28;20034;-80
2022/08/20 10:07:37;;;;;;;17.08;9.85;;;26.50;99.90;;;;;;5092907;28;20027;-82
2022/08/20 10:10:04;;;;;;;16.55;9.45;;;26.90;99.90;;;;;;5105429;28;20500;-83
2022/08/20 10:12:30;;;;;;;19.60;10.13;;;27.10;99.90;;;;;;5099044;28;20055;-83
2022/08/20 10:14:56;;;;;;;13.43;9.43;;;27.20;99.90;;;;;;5105677;28;20027;-82
2022/08/20 10:17:21;;;;;;;14.90;9.50;;;27.40;99.90;;;;;;5092864;28;20035;-80
2022/08/20 10:19:47;;;;;;;15.32;9.75;;;27.60;99.90;;;;;;5099344;28;20550;-81
2022/08/20 10:22:13;;;;;;;14.85;9.73;;;27.70;99.90;;;;;;5090864;28;20066;-84
2022/08/20 10:24:39;;;;;;;17.25;9.88;;;27.80;97.60;;;;;;5099123;28;20032;-84
2022/08/20 10:27:04;;;;;;;14.93;8.65;;;28.10;99.10;;;;;;5090380;28;20068;-83
2022/08/20 10:29:30;;;;;;;11.48;8.82;;;27.90;93.90;;;;;;5103599;27;20095;-82
2022/08/20 10:31:56;;;;;;;14.20;9.32;;;28.00;95.40;;;;;;5093581;28;20057;-82
2022/08/20 10:34:23;;;;;;;15.23;9.23;;;27.80;94.10;;;;;;5100163;28;20420;-82
2022/08/20 10:36:49;;;;;;;16.00;9.18;;;27.80;95.00;;;;;;5092938;28;20085;-81
2022/08/20 10:39:15;;;;;;;17.25;9.68;;;27.70;93.90;;;;;;5098998;28;20028;-83
2022/08/20 10:41:41;;;;;;;19.92;9.73;;;27.60;95.40;;;;;;5091226;28;20027;-83
2022/08/20 10:44:06;;;;;;;12.52;8.82;;;27.70;94.50;;;;;;5104342;28;20024;-83
2022/08/20 10:46:35;;;;;;;11.50;9.38;;;27.90;94.30;;;;;;5115929;27;20405;-83
2022/08/20 10:49:01;;;;;;;12.45;8.57;;;28.00;90.40;;;;;;5115812;27;20047;-81
2022/08/20 10:51:27;;;;;;;13.25;9.02;;;28.10;88.80;;;;;;5092947;28;20046;-83
2022/08/20 10:53:52;;;;;;;10.52;8.93;;;28.20;88.40;;;;;;5101821;28;20020;-81
2022/08/20 10:56:18;;;;;;;12.13;8.77;;;28.20;88.60;;;;;;5092377;28;20020;-82
2022/08/20 10:58:43;;;;;;;12.23;9.48;;;28.10;87.80;;;;;;5100544;28;20043;-81
2022/08/20 11:01:11;;;;;;;11.25;8.90;;;28.00;88.90;;;;;;5091812;28;20020;-82
2022/08/20 11:03:37;;;;;;;14.60;8.80;;;28.30;87.80;;;;;;5099429;28;20560;-81
2022/08/20 11:06:03;;;;;;;12.85;9.77;;;28.40;87.40;;;;;;5092658;28;20095;-82
2022/08/20 11:08:28;;;;;;;10.82;8.88;;;28.50;85.90;;;;;;5103764;28;20038;-82
2022/08/20 11:10:54;;;;;;;11.20;8.80;;;28.80;83.60;;;;;;5096095;28;20081;-82
2022/08/20 11:13:20;;;;;;;13.57;10.52;;;28.90;80.60;;;;;;5092018;28;20418;-82
2022/08/20 11:15:46;;;;;;;16.63;9.85;;;29.00;79.70;;;;;;5092401;28;20012;-82
2022/08/20 11:18:12;;;;;;;13.02;9.25;;;29.00;79.70;;;;;;5100365;28;20514;-83
2022/08/20 11:20:38;;;;;;;20.25;9.65;;;29.10;75.10;;;;;;5097242;28;20351;-83
2022/08/20 11:23:04;;;;;;;19.23;9.38;;;28.80;77.20;;;;;;5102701;28;20122;-83
2022/08/20 11:25:30;;;;;;;15.32;9.60;;;28.70;78.20;;;;;;5116954;28;20089;-82
2022/08/20 11:27:56;;;;;;;11.20;9.05;;;28.70;78.30;;;;;;5102029;27;20028;-82
2022/08/20 11:30:28;;;;;;;13.63;8.57;;;28.60;78.20;;;;;;5137368;27;20051;-83
2022/08/20 11:32:54;;;;;;;17.90;8.77;;;28.50;76.90;;;;;;5134125;27;20080;-83
2022/08/20 11:35:22;;;;;;;13.10;7.68;;;28.40;81.30;;;;;;5119888;27;20090;-83
2022/08/20 11:37:49;;;;;;;13.07;8.48;;;28.30;79.10;;;;;;5115022;27;20027;-82
2022/08/20 11:40:15;;;;;;;20.30;8.93;;;28.50;79.70;;;;;;5101107;28;20032;-83
2022/08/20 11:42:41;;;;;;;10.80;7.97;;;28.60;77.60;;;;;;5095212;28;20076;-82
2022/08/20 11:45:07;;;;;;;12.43;8.73;;;28.70;73.60;;;;;;5096282;28;20024;-81
2022/08/20 11:47:35;;;;;;;13.43;8.25;;;28.80;74.30;;;;;;5099498;28;20026;-82
2022/08/20 11:50:09;;;;;;;12.10;8.15;;;28.90;72.40;;;;;;5114456;28;20422;-82
2022/08/20 11:52:35;;;;;;;15.10;8.52;;;29.00;72.00;;;;;;5116312;28;20092;-82
2022/08/20 11:55:01;;;;;;;11.18;7.55;;;29.10;69.30;;;;;;5115886;28;20024;-82
2022/08/20 11:57:30;;;;;;;10.82;7.20;;;29.40;69.50;;;;;;5115349;28;20024;-82
2022/08/20 11:59:59;;;;;;;10.20;7.05;;;29.50;65.00;;;;;;5104298;28;20102;-82
2022/08/20 12:02:25;;;;;;;13.18;7.35;;;29.60;64.80;;;;;;5116537;28;20032;-81
2022/08/20 12:04:51;;;;;;;9.60;7.18;;;29.60;64.90;;;;;;5115097;27;20053;-82
2022/08/20 12:07:20;;;;;;;8.07;7.25;;;29.60;65.40;;;;;;5099335;28;20024;-81
2022/08/20 12:09:47;;;;;;;9.10;7.00;;;29.70;64.30;;;;;;5095901;28;20461;-81
2022/08/20 12:12:14;;;;;;;9.63;7.03;;;29.70;63.30;;;;;;5095323;28;20077;-81
2022/08/20 12:14:39;;;;;;;13.15;8.13;;;29.60;65.00;;;;;;5094779;28;20023;-81
2022/08/20 12:17:16;;;;;;;16.25;9.80;;;29.30;77.00;;;;;;5095871;28;20024;-81
2022/08/20 12:19:42;;;;;;;14.63;9.38;;;28.80;95.90;;;;;;5108275;28;20039;-82
2022/08/20 12:22:08;;;;;;;15.88;9.90;;;28.50;98.10;;;;;;5095657;28;20032;-82
2022/08/20 12:24:35;;;;;;;18.80;10.70;;;28.30;99.30;;;;;;5109238;28;20055;-82
2022/08/20 12:27:14;;;;;;;15.50;9.70;;;28.00;99.70;;;;;;5103229;28;20073;-81
2022/08/20 12:29:42;;;;;;;23.33;12.00;;;27.90;99.90;;;;;;5104098;27;20377;-82
2022/08/20 12:32:08;;;;;;;13.13;10.10;;;27.80;99.90;;;;;;5102445;28;20637;-82
2022/08/20 12:34:36;;;;;;;18.38;10.45;;;27.70;99.90;;;;;;5107391;28;20047;-83
2022/08/20 12:37:08;;;;;;;16.33;10.60;;;27.00;99.90;;;;;;5109433;28;20023;-81
2022/08/20 12:39:37;;;;;;;18.88;10.35;;;27.00;99.90;;;;;;5100799;28;20031;-81
2022/08/20 12:42:03;;;;;;;19.30;11.10;;;26.70;99.90;;;;;;5110158;28;20102;-83
2022/08/20 12:44:41;;;;;;;16.08;10.68;;;26.60;99.90;;;;;;5100765;28;20518;-83